Time;durP1;ratioP1;P1;durP2;ratioP2;P2;SDS_P1;SDS_P2;PMS_P1;PMS_P2;Temp;Humidity;BMP_temperature;BMP_pressure;BME280_temperature;BME280_humidity;BME280_pressure;Samples;Min_cycle;Max_cycle;Signal;HPM_P1;HPM_P2
2024/01/15 00:00:01;;;;;;;9.82;3.05;;;1.60;99.90;;;;;;4993834;28;20046;-73
2024/01/15 00:02:27;;;;;;;12.38;2.85;;;1.70;99.90;;;;;;4980968;28;20363;-73
2024/01/15 00:04:53;;;;;;;12.05;2.28;;;1.70;99.90;;;;;;4980693;28;20129;-72
2024/01/15 00:07:18;;;;;;;15.20;2.50;;;1.70;99.90;;;;;;4997868;28;20449;-73
2024/01/15 00:09:44;;;;;;;13.05;2.90;;;1.80;99.90;;;;;;4979444;28;20050;-73
2024/01/15 00:12:10;;;;;;;13.30;2.70;;;1.90;99.90;;;;;;5016055;28;20048;-73
2024/01/15 00:14:35;;;;;;;19.33;2.22;;;2.00;99.90;;;;;;4997026;28;20038;-73
2024/01/15 00:17:01;;;;;;;11.07;2.72;;;2.10;99.90;;;;;;4997639;28;20081;-73
2024/01/15 00:19:27;;;;;;;8.52;2.10;;;2.20;99.90;;;;;;4996028;28;20460;-73
2024/01/15 00:21:53;;;;;;;13.38;2.90;;;2.30;99.90;;;;;;5013873;28;20081;-73
2024/01/15 00:24:19;;;;;;;13.30;2.63;;;2.30;99.90;;;;;;4999836;28;20132;-73
2024/01/15 00:26:45;;;;;;;8.73;2.25;;;2.20;99.90;;;;;;5005587;28;20046;-73
2024/01/15 00:29:10;;;;;;;13.40;2.60;;;2.10;99.90;;;;;;5001454;28;20507;-73
2024/01/15 00:31:36;;;;;;;10.13;2.05;;;2.10;99.90;;;;;;5033178;28;20132;-73
2024/01/15 00:34:02;;;;;;;9.35;1.95;;;2.20;99.90;;;;;;4983220;28;20065;-73
2024/01/15 00:36:28;;;;;;;9.20;1.80;;;2.10;99.90;;;;;;4985085;28;20054;-73
2024/01/15 00:38:54;;;;;;;6.22;1.60;;;2.00;99.90;;;;;;4997178;28;20054;-73
2024/01/15 00:41:21;;;;;;;3.25;1.20;;;2.10;99.90;;;;;;5001973;28;20041;-73
2024/01/15 00:43:48;;;;;;;3.10;1.02;;;1.80;99.90;;;;;;5001180;28;20053;-73
2024/01/15 00:46:15;;;;;;;5.22;1.10;;;1.70;99.90;;;;;;4995953;28;20081;-73
2024/01/15 00:48:40;;;;;;;5.00;1.30;;;1.80;99.90;;;;;;4990531;28;20040;-73
2024/01/15 00:51:06;;;;;;;5.07;1.23;;;1.70;99.90;;;;;;5032203;28;20038;-74
2024/01/15 00:53:32;;;;;;;5.60;1.77;;;1.70;99.90;;;;;;5000053;28;20034;-74
2024/01/15 00:55:58;;;;;;;7.72;1.85;;;1.80;99.90;;;;;;4988136;28;20116;-74
2024/01/15 00:58:25;;;;;;;9.05;1.60;;;1.60;99.90;;;;;;5003678;28;20041;-74
2024/01/15 01:00:51;;;;;;;10.70;2.70;;;1.50;99.90;;;;;;5030184;28;20212;-74
2024/01/15 01:03:16;;;;;;;5.70;1.65;;;1.50;99.90;;;;;;4981999;28;20129;-74
2024/01/15 01:05:43;;;;;;;10.27;1.67;;;1.60;99.90;;;;;;5030394;28;20492;-74
2024/01/15 01:08:09;;;;;;;12.05;2.45;;;1.70;99.90;;;;;;5011697;28;20142;-74
2024/01/15 01:10:35;;;;;;;7.68;2.53;;;1.60;99.90;;;;;;4995615;28;20589;-74
2024/01/15 01:13:01;;;;;;;8.07;1.88;;;1.70;99.90;;;;;;4997899;28;20042;-74
2024/01/15 01:15:27;;;;;;;6.95;1.30;;;1.60;99.90;;;;;;4980532;28;20401;-74
2024/01/15 01:17:53;;;;;;;8.07;1.50;;;1.70;99.90;;;;;;4995735;28;20253;-74
2024/01/15 01:20:18;;;;;;;7.50;2.10;;;1.70;99.90;;;;;;5001478;28;20585;-74
2024/01/15 01:22:44;;;;;;;9.77;2.05;;;1.60;99.90;;;;;;4993512;28;20046;-74
2024/01/15 01:25:10;;;;;;;8.60;1.90;;;1.70;99.90;;;;;;4989814;28;20037;-74
2024/01/15 01:27:36;;;;;;;9.70;1.85;;;1.60;99.90;;;;;;4997112;28;20045;-73
2024/01/15 01:30:02;;;;;;;11.95;2.25;;;1.60;99.90;;;;;;4982761;28;20080;-73
2024/01/15 01:32:27;;;;;;;11.30;2.15;;;1.80;99.90;;;;;;5026680;28;20041;-73
2024/01/15 01:34:53;;;;;;;12.93;2.67;;;1.70;99.90;;;;;;4998563;28;20076;-73
2024/01/15 01:37:19;;;;;;;7.65;2.00;;;1.80;99.90;;;;;;5000878;28;20065;-73
2024/01/15 01:39:45;;;;;;;11.60;1.90;;;1.80;99.90;;;;;;4999546;28;20182;-74
2024/01/15 01:42:12;;;;;;;12.65;2.15;;;1.90;99.90;;;;;;4999984;28;20042;-74
2024/01/15 01:44:38;;;;;;;11.07;2.20;;;2.10;99.90;;;;;;4988395;28;20046;-73
2024/01/15 01:47:04;;;;;;;11.95;2.33;;;2.10;99.90;;;;;;4984266;28;20049;-73
2024/01/15 01:49:31;;;;;;;11.73;2.00;;;2.00;99.90;;;;;;4981502;28;20184;-73
2024/01/15 01:51:59;;;;;;;8.20;2.13;;;2.00;99.90;;;;;;4983552;28;20049;-73
2024/01/15 01:54:31;;;;;;;13.00;2.22;;;2.20;99.90;;;;;;4980803;28;20579;-73
2024/01/15 01:56:57;;;;;;;11.52;2.10;;;2.00;99.90;;;;;;4998341;28;20038;-73
2024/01/15 01:59:27;;;;;;;10.43;2.10;;;2.10;99.90;;;;;;4990712;28;20045;-73
2024/01/15 02:01:54;;;;;;;14.45;2.08;;;2.10;99.90;;;;;;5016698;28;20045;-73
2024/01/15 02:04:21;;;;;;;9.48;1.67;;;2.00;99.90;;;;;;4998520;28;20813;-73
2024/01/15 02:06:48;;;;;;;14.00;2.33;;;2.10;99.90;;;;;;4984470;28;20061;-73
2024/01/15 02:09:17;;;;;;;6.22;1.75;;;2.10;99.90;;;;;;4999049;28;20046;-73
2024/01/15 02:11:43;;;;;;;8.20;1.90;;;2.10;99.90;;;;;;4982092;28;20459;-73
2024/01/15 02:14:10;;;;;;;9.68;2.20;;;2.10;99.90;;;;;;4998054;28;20050;-73
2024/01/15 02:16:36;;;;;;;8.93;1.55;;;2.00;99.90;;;;;;4991553;28;20046;-73
2024/01/15 02:19:01;;;;;;;7.22;1.65;;;2.10;99.90;;;;;;5027653;28;20479;-73
2024/01/15 02:21:28;;;;;;;6.28;1.63;;;2.10;99.90;;;;;;4995436;28;20220;-74
2024/01/15 02:23:55;;;;;;;6.78;1.80;;;2.00;99.90;;;;;;4984421;28;20133;-73
2024/01/15 02:26:21;;;;;;;7.10;1.40;;;2.10;99.90;;;;;;4998511;28;20049;-73
2024/01/15 02:28:48;;;;;;;11.43;2.00;;;2.00;99.90;;;;;;4985199;28;20050;-73
2024/01/15 02:31:14;;;;;;;12.88;1.90;;;1.90;99.90;;;;;;5017435;28;20081;-73
2024/01/15 02:33:42;;;;;;;13.10;2.00;;;1.80;99.90;;;;;;4997991;28;20175;-73
2024/01/15 02:36:08;;;;;;;8.32;1.80;;;1.90;99.90;;;;;;5002444;28;20058;-73
2024/01/15 02:38:33;;;;;;;12.95;2.75;;;1.90;99.90;;;;;;4985758;28;20045;-73
2024/01/15 02:40:59;;;;;;;15.90;2.17;;;2.00;99.90;;;;;;4998619;28;20099;-73
2024/01/15 02:43:25;;;;;;;9.40;2.00;;;1.90;99.90;;;;;;5002409;28;20061;-73
2024/01/15 02:45:51;;;;;;;5.95;2.22;;;1.90;99.90;;;;;;5013024;28;20458;-74
2024/01/15 02:48:17;;;;;;;17.90;2.90;;;2.10;99.90;;;;;;5000778;28;20049;-73
2024/01/15 02:50:45;;;;;;;9.75;2.00;;;2.00;99.90;;;;;;4981904;28;20488;-73
2024/01/15 02:53:10;;;;;;;12.75;2.97;;;2.00;99.90;;;;;;5031313;28;20073;-73
2024/01/15 02:55:36;;;;;;;11.95;2.95;;;1.90;99.90;;;;;;5019223;28;20418;-73
2024/01/15 02:58:03;;;;;;;14.95;3.00;;;2.00;99.90;;;;;;5014751;28;20069;-73
2024/01/15 03:00:28;;;;;;;16.63;3.00;;;1.90;99.90;;;;;;5014866;28;20075;-73
2024/01/15 03:02:55;;;;;;;12.60;2.20;;;2.00;99.90;;;;;;4999060;28;20060;-73
2024/01/15 03:05:20;;;;;;;11.02;2.33;;;1.90;99.90;;;;;;5000610;28;20133;-73
2024/01/15 03:07:46;;;;;;;12.65;3.53;;;2.00;99.90;;;;;;4990203;28;20258;-74
2024/01/15 03:10:12;;;;;;;10.50;2.50;;;2.10;99.90;;;;;;5014097;28;20046;-73
2024/01/15 03:12:38;;;;;;;11.90;2.58;;;2.00;99.90;;;;;;4995789;28;20464;-74
2024/01/15 03:15:04;;;;;;;13.15;3.47;;;2.10;99.90;;;;;;4999452;28;20042;-74
2024/01/15 03:17:30;;;;;;;13.35;2.55;;;2.20;99.90;;;;;;5001808;28;20042;-73
2024/01/15 03:19:55;;;;;;;9.13;2.10;;;2.20;99.90;;;;;;4995144;28;20085;-74
2024/01/15 03:22:21;;;;;;;15.07;3.03;;;2.00;99.90;;;;;;4998843;28;20065;-74
2024/01/15 03:24:47;;;;;;;12.45;2.75;;;2.00;99.90;;;;;;5004587;28;20184;-73
2024/01/15 03:27:13;;;;;;;12.77;2.35;;;2.10;99.90;;;;;;4983805;28;20125;-74
2024/01/15 03:29:40;;;;;;;10.05;2.38;;;2.00;99.90;;;;;;4984696;28;20088;-74
2024/01/15 03:32:06;;;;;;;11.63;3.10;;;2.00;99.90;;;;;;4999204;28;20042;-73
2024/01/15 03:34:32;;;;;;;9.90;2.45;;;2.10;99.90;;;;;;5031493;28;20038;-74
2024/01/15 03:36:59;;;;;;;11.68;2.70;;;2.00;99.90;;;;;;4996930;28;20073;-73
2024/01/15 03:39:25;;;;;;;9.13;2.50;;;1.90;99.90;;;;;;4986589;28;20408;-74
2024/01/15 03:41:51;;;;;;;10.95;2.63;;;1.90;99.90;;;;;;4987469;28;20038;-74
2024/01/15 03:44:16;;;;;;;17.23;2.90;;;2.00;99.90;;;;;;4998869;28;20042;-74
2024/01/15 03:46:42;;;;;;;11.85;2.85;;;1.80;99.90;;;;;;4998327;28;20054;-74
2024/01/15 03:49:08;;;;;;;13.13;2.70;;;1.90;99.90;;;;;;4986722;28;20270;-73
2024/01/15 03:51:34;;;;;;;12.52;2.72;;;2.00;99.90;;;;;;4999517;28;20126;-74
2024/01/15 03:54:00;;;;;;;13.52;2.67;;;2.00;99.90;;;;;;4988023;28;20053;-74
2024/01/15 03:56:25;;;;;;;17.95;3.30;;;2.00;99.90;;;;;;4988308;28;20143;-74
2024/01/15 03:58:51;;;;;;;18.60;3.22;;;2.20;99.90;;;;;;5003033;28;20045;-74
2024/01/15 04:01:17;;;;;;;13.32;3.38;;;2.30;99.90;;;;;;5002723;28;20034;-74
2024/01/15 04:03:42;;;;;;;8.52;2.38;;;2.30;99.90;;;;;;4981046;28;20524;-74
2024/01/15 04:06:08;;;;;;;11.82;2.65;;;2.30;99.90;;;;;;4985930;28;20378;-74
2024/01/15 04:08:34;;;;;;;7.95;2.28;;;2.30;99.90;;;;;;5007168;28;20511;-74
2024/01/15 04:11:01;;;;;;;12.98;2.85;;;2.40;99.90;;;;;;5002151;28;20046;-74
2024/01/15 04:13:27;;;;;;;15.52;2.70;;;2.40;99.90;;;;;;5013644;28;20478;-74
2024/01/15 04:15:53;;;;;;;8.05;1.92;;;2.40;99.90;;;;;;5030906;28;20124;-73
2024/01/15 04:18:19;;;;;;;11.82;2.33;;;2.60;99.90;;;;;;5013260;28;20121;-74
2024/01/15 04:20:44;;;;;;;11.40;2.40;;;2.70;99.90;;;;;;4985334;28;20453;-74
2024/01/15 04:23:10;;;;;;;13.57;2.55;;;2.70;99.90;;;;;;4985918;28;20042;-74
2024/01/15 04:25:36;;;;;;;11.38;3.25;;;2.70;99.90;;;;;;4987994;28;20033;-74
2024/01/15 04:28:02;;;;;;;12.90;2.90;;;2.70;99.90;;;;;;4986553;28;20401;-74
2024/01/15 04:30:28;;;;;;;7.45;1.80;;;2.60;99.90;;;;;;4998590;28;20219;-74
2024/01/15 04:32:54;;;;;;;7.70;1.55;;;2.30;99.90;;;;;;5017584;28;20578;-74
2024/01/15 04:35:19;;;;;;;4.60;1.40;;;2.10;99.90;;;;;;4983988;28;20044;-74
2024/01/15 04:37:45;;;;;;;5.75;1.15;;;2.00;99.90;;;;;;5024625;28;20057;-74
2024/01/15 04:40:11;;;;;;;6.97;1.50;;;1.90;99.90;;;;;;4995222;28;20046;-74
2024/01/15 04:42:37;;;;;;;6.13;1.25;;;1.80;99.90;;;;;;5029388;28;20038;-74
2024/01/15 04:45:03;;;;;;;4.80;1.67;;;1.80;99.90;;;;;;4999814;28;20042;-74
2024/01/15 04:47:29;;;;;;;7.47;1.70;;;1.70;99.90;;;;;;4986433;28;20075;-74
2024/01/15 04:49:55;;;;;;;7.63;1.50;;;1.80;99.90;;;;;;4981681;28;20077;-74
2024/01/15 04:52:21;;;;;;;7.78;1.92;;;1.80;99.90;;;;;;4983277;28;20490;-74
2024/01/15 04:54:50;;;;;;;4.57;1.48;;;1.80;99.90;;;;;;4998489;28;20525;-74
2024/01/15 04:57:15;;;;;;;7.40;1.60;;;1.70;99.90;;;;;;4988590;28;20053;-74
2024/01/15 04:59:41;;;;;;;5.13;1.35;;;1.70;99.90;;;;;;4988174;28;20417;-74
2024/01/15 05:02:07;;;;;;;4.85;1.20;;;1.60;99.90;;;;;;4983751;28;20438;-74
2024/01/15 05:04:33;;;;;;;6.13;1.42;;;1.60;99.90;;;;;;5000646;28;21028;-74
2024/01/15 05:06:58;;;;;;;8.25;1.60;;;1.60;99.90;;;;;;4984733;28;20046;-74
2024/01/15 05:09:24;;;;;;;4.15;1.25;;;1.50;99.90;;;;;;5001191;28;20096;-74
2024/01/15 05:11:50;;;;;;;5.43;1.40;;;1.50;99.90;;;;;;4982148;28;20112;-73
2024/01/15 05:14:15;;;;;;;7.85;1.40;;;1.50;99.90;;;;;;4984929;28;20164;-73
2024/01/15 05:16:48;;;;;;;3.40;0.93;;;1.40;99.90;;;;;;4999841;28;20123;-73
2024/01/15 05:19:14;;;;;;;4.78;1.40;;;1.40;99.90;;;;;;4999222;28;20042;-73
2024/01/15 05:21:40;;;;;;;5.32;0.90;;;1.40;99.90;;;;;;4984347;28;20041;-73
2024/01/15 05:24:05;;;;;;;5.82;1.35;;;1.50;99.90;;;;;;5018482;28;20041;-73
2024/01/15 05:26:31;;;;;;;3.70;1.20;;;1.40;99.90;;;;;;4991845;28;20073;-73
2024/01/15 05:28:57;;;;;;;5.22;1.52;;;1.50;99.90;;;;;;4980647;28;20121;-73
2024/01/15 05:31:23;;;;;;;7.03;2.28;;;1.50;99.90;;;;;;4999884;28;20493;-73
2024/01/15 05:33:49;;;;;;;6.18;1.88;;;1.50;99.90;;;;;;4984326;28;20129;-73
2024/01/15 05:36:14;;;;;;;3.67;1.33;;;1.50;99.90;;;;;;5005394;28;20179;-73
2024/01/15 05:38:40;;;;;;;6.80;1.48;;;1.50;99.90;;;;;;4998717;28;20038;-73
2024/01/15 05:41:07;;;;;;;8.00;1.67;;;1.50;99.90;;;;;;4981435;28;20037;-73
2024/01/15 05:43:32;;;;;;;8.00;1.80;;;1.60;99.90;;;;;;4988760;28;20038;-73
2024/01/15 05:45:59;;;;;;;5.43;1.58;;;1.50;99.90;;;;;;4998360;28;20057;-73
2024/01/15 05:48:25;;;;;;;11.77;1.92;;;1.60;99.90;;;;;;4983365;28;20050;-73
2024/01/15 05:50:53;;;;;;;10.38;1.85;;;1.40;99.90;;;;;;5002349;28;20488;-73
2024/01/15 05:53:19;;;;;;;8.68;2.15;;;1.50;99.90;;;;;;4996932;28;20077;-73
2024/01/15 05:55:45;;;;;;;12.77;2.55;;;1.50;99.90;;;;;;4995031;28;20140;-73
2024/01/15 05:58:10;;;;;;;10.70;2.22;;;1.40;99.90;;;;;;4982822;28;20042;-73
2024/01/15 06:00:38;;;;;;;14.77;2.20;;;1.50;99.90;;;;;;4994389;28;20049;-73
2024/01/15 06:03:04;;;;;;;10.60;2.55;;;1.40;99.90;;;;;;4997550;28;20100;-73
2024/01/15 06:05:30;;;;;;;16.08;2.55;;;1.30;99.90;;;;;;5028024;28;20042;-73
2024/01/15 06:07:55;;;;;;;13.82;2.47;;;1.40;99.90;;;;;;5016739;28;20157;-72
2024/01/15 06:10:21;;;;;;;14.15;2.97;;;1.40;99.90;;;;;;5002280;28;20049;-73
2024/01/15 06:12:47;;;;;;;11.55;1.98;;;1.40;99.90;;;;;;4985216;28;20467;-73
2024/01/15 06:15:13;;;;;;;15.20;2.22;;;1.50;99.90;;;;;;5000167;28;20608;-72
2024/01/15 06:17:39;;;;;;;10.30;1.73;;;1.40;99.90;;;;;;4988667;28;20045;-73
2024/01/15 06:20:05;;;;;;;11.15;1.92;;;1.50;99.90;;;;;;4987512;28;20069;-73
2024/01/15 06:22:31;;;;;;;8.13;1.88;;;1.40;99.90;;;;;;5001266;28;20046;-73
2024/01/15 06:24:57;;;;;;;8.57;2.13;;;1.40;99.90;;;;;;5000001;28;20053;-73
2024/01/15 06:27:23;;;;;;;10.43;2.00;;;1.50;99.90;;;;;;5018739;28;20049;-73
2024/01/15 06:29:49;;;;;;;9.18;2.50;;;1.60;99.90;;;;;;4985664;28;20099;-73
2024/01/15 06:32:15;;;;;;;12.27;2.33;;;1.50;99.90;;;;;;4989127;28;20050;-73
2024/01/15 06:34:41;;;;;;;12.23;3.60;;;1.50;99.90;;;;;;4983182;28;20048;-73
2024/01/15 06:37:06;;;;;;;9.75;3.03;;;1.50;99.90;;;;;;5024406;28;20532;-73
2024/01/15 06:39:32;;;;;;;14.63;2.88;;;1.50;99.90;;;;;;5025991;28;20068;-73
2024/01/15 06:41:58;;;;;;;19.25;3.22;;;1.50;99.90;;;;;;5001510;28;20052;-73
2024/01/15 06:44:24;;;;;;;13.27;2.70;;;1.50;99.90;;;;;;5006442;28;20215;-73
2024/01/15 06:46:49;;;;;;;15.25;2.75;;;1.60;99.90;;;;;;4999430;28;20050;-73
2024/01/15 06:49:15;;;;;;;13.85;3.28;;;1.60;99.90;;;;;;5001690;28;20041;-73
2024/01/15 06:51:41;;;;;;;21.02;3.40;;;1.40;99.90;;;;;;4993575;28;20049;-73
2024/01/15 06:54:07;;;;;;;15.45;2.90;;;1.50;99.90;;;;;;5035267;28;20045;-73
2024/01/15 06:56:33;;;;;;;14.32;3.22;;;1.40;99.90;;;;;;4996823;28;20052;-73
2024/01/15 06:58:59;;;;;;;13.40;2.47;;;1.40;99.90;;;;;;4990833;28;20042;-73
2024/01/15 07:01:25;;;;;;;15.05;3.25;;;1.50;99.90;;;;;;5003433;28;20037;-73
2024/01/15 07:03:51;;;;;;;14.50;3.03;;;1.50;99.90;;;;;;4995992;28;20048;-73
2024/01/15 07:06:17;;;;;;;14.30;2.90;;;1.50;99.90;;;;;;4987586;28;20044;-73
2024/01/15 07:08:43;;;;;;;16.38;3.08;;;1.50;99.90;;;;;;4985459;28;20046;-73
2024/01/15 07:11:09;;;;;;;21.58;4.68;;;1.40;99.90;;;;;;4986794;28;20437;-73
2024/01/15 07:13:38;;;;;;;14.57;2.95;;;1.60;99.90;;;;;;5001446;28;20169;-73
2024/01/15 07:16:04;;;;;;;15.07;2.97;;;1.50;99.90;;;;;;4985260;28;20101;-73
2024/01/15 07:18:29;;;;;;;16.33;2.53;;;1.60;99.90;;;;;;5029052;28;20153;-73
2024/01/15 07:20:55;;;;;;;11.32;3.22;;;1.50;99.90;;;;;;5000640;28;20370;-73
2024/01/15 07:23:21;;;;;;;13.60;3.00;;;1.50;99.90;;;;;;5015475;28;20084;-73
2024/01/15 07:25:47;;;;;;;10.93;2.40;;;1.50;99.90;;;;;;4996193;28;20096;-73
2024/01/15 07:28:13;;;;;;;16.15;2.35;;;1.40;99.90;;;;;;4997622;28;20089;-73
2024/01/15 07:30:39;;;;;;;12.85;2.55;;;1.50;99.90;;;;;;4984864;28;20084;-73
2024/01/15 07:33:05;;;;;;;11.98;2.17;;;1.40;99.90;;;;;;4999086;28;20085;-73
2024/01/15 07:35:31;;;;;;;14.73;2.92;;;1.40;99.90;;;;;;4984524;28;20049;-73
2024/01/15 07:37:57;;;;;;;14.73;2.58;;;1.30;99.90;;;;;;4985307;28;20066;-73
2024/01/15 07:40:24;;;;;;;16.52;3.03;;;1.40;99.90;;;;;;4993907;28;20043;-73
2024/01/15 07:42:50;;;;;;;13.75;2.67;;;1.30;99.90;;;;;;5000963;28;20279;-73
2024/01/15 07:45:16;;;;;;;8.30;2.42;;;1.40;99.90;;;;;;4995059;28;20571;-73
2024/01/15 07:47:42;;;;;;;14.65;2.83;;;1.40;99.90;;;;;;4994054;28;20053;-73
2024/01/15 07:50:07;;;;;;;14.02;2.90;;;1.40;99.90;;;;;;4989145;28;20050;-73
2024/01/15 07:52:33;;;;;;;11.35;2.78;;;1.50;99.90;;;;;;4999793;28;20038;-73
2024/01/15 07:54:59;;;;;;;11.43;2.58;;;1.50;99.90;;;;;;4988128;28;20045;-73
2024/01/15 07:57:26;;;;;;;9.23;2.47;;;1.60;99.90;;;;;;4996017;28;20263;-73
2024/01/15 07:59:51;;;;;;;13.93;2.42;;;1.60;99.90;;;;;;4989984;28;20296;-73
2024/01/15 08:02:17;;;;;;;7.35;1.85;;;1.50;99.90;;;;;;5011187;28;20113;-73
2024/01/15 08:04:44;;;;;;;13.10;2.40;;;1.50;99.90;;;;;;4997908;28;20056;-73
2024/01/15 08:07:10;;;;;;;11.15;2.03;;;1.50;99.90;;;;;;4984825;28;20469;-73
2024/01/15 08:09:36;;;;;;;8.75;2.58;;;1.40;99.90;;;;;;4999104;28;20045;-73
2024/01/15 08:12:01;;;;;;;10.57;2.25;;;1.50;99.90;;;;;;4992354;28;20073;-73
2024/01/15 08:14:27;;;;;;;11.32;2.40;;;1.40;99.90;;;;;;5001372;28;20128;-73
2024/01/15 08:16:53;;;;;;;14.15;2.40;;;1.30;99.90;;;;;;4982069;28;20064;-73
2024/01/15 08:19:19;;;;;;;10.07;2.38;;;1.40;99.90;;;;;;4995297;28;20126;-73
2024/01/15 08:21:45;;;;;;;11.52;2.60;;;1.40;99.90;;;;;;4992870;28;20046;-73
2024/01/15 08:24:11;;;;;;;13.05;3.35;;;1.40;99.90;;;;;;4987863;28;20049;-73
2024/01/15 08:26:37;;;;;;;7.53;1.88;;;1.50;99.90;;;;;;4993780;28;20132;-73
2024/01/15 08:29:03;;;;;;;8.07;1.67;;;1.50;99.90;;;;;;4994690;28;20489;-73
2024/01/15 08:31:29;;;;;;;9.43;1.85;;;1.40;99.90;;;;;;4994561;28;20559;-73
2024/01/15 08:33:55;;;;;;;5.63;2.03;;;1.60;99.90;;;;;;4990424;28;20070;-73
2024/01/15 08:36:21;;;;;;;10.25;1.83;;;1.60;99.90;;;;;;4994017;28;20058;-73
2024/01/15 08:38:47;;;;;;;9.35;1.77;;;1.50;99.90;;;;;;4977169;28;20470;-73
2024/01/15 08:41:14;;;;;;;6.63;1.40;;;1.60;99.90;;;;;;4982203;28;20041;-73
2024/01/15 08:43:39;;;;;;;7.75;1.52;;;1.70;99.90;;;;;;5012166;28;20037;-73
2024/01/15 08:46:05;;;;;;;7.53;1.55;;;1.60;99.90;;;;;;5008665;28;20046;-73
2024/01/15 08:48:31;;;;;;;7.57;1.60;;;1.70;99.90;;;;;;4987119;28;20046;-73
2024/01/15 08:50:57;;;;;;;5.63;1.92;;;1.80;99.90;;;;;;4994131;28;20069;-73
2024/01/15 08:53:23;;;;;;;8.65;1.60;;;1.90;99.90;;;;;;5011177;28;20552;-73
2024/01/15 08:55:49;;;;;;;6.07;1.52;;;1.90;99.90;;;;;;4998066;28;20046;-73
2024/01/15 08:58:15;;;;;;;7.40;1.58;;;2.00;99.90;;;;;;4996261;28;20042;-73
2024/01/15 09:00:41;;;;;;;6.28;1.73;;;2.10;99.90;;;;;;5000228;28;20045;-73
2024/01/15 09:03:08;;;;;;;10.77;2.03;;;2.10;99.90;;;;;;4991208;28;20378;-73
2024/01/15 09:05:34;;;;;;;6.05;1.60;;;2.10;99.90;;;;;;5031843;28;20042;-73
2024/01/15 09:08:00;;;;;;;8.73;2.08;;;2.20;99.90;;;;;;4983949;28;20076;-74
2024/01/15 09:10:26;;;;;;;10.05;1.77;;;2.30;99.90;;;;;;4996983;28;20046;-73
2024/01/15 09:12:52;;;;;;;6.28;1.40;;;2.30;99.90;;;;;;4994059;28;20488;-73
2024/01/15 09:15:17;;;;;;;6.93;1.35;;;2.30;99.90;;;;;;4997582;28;20042;-73
2024/01/15 09:17:43;;;;;;;5.25;1.30;;;2.20;99.90;;;;;;5008295;28;20403;-74
2024/01/15 09:20:09;;;;;;;4.72;1.58;;;2.10;99.90;;;;;;4980742;28;20041;-73
2024/01/15 09:22:40;;;;;;;2.58;1.10;;;2.00;99.90;;;;;;4996913;28;20052;-73
2024/01/15 09:25:06;;;;;;;5.10;1.30;;;2.00;99.90;;;;;;4993906;28;20061;-73
2024/01/15 09:27:32;;;;;;;5.28;1.65;;;2.00;99.90;;;;;;5010670;28;20724;-74
2024/01/15 09:29:58;;;;;;;2.90;1.20;;;2.00;99.90;;;;;;5015348;28;21297;-73
2024/01/15 09:32:24;;;;;;;7.30;1.38;;;2.00;99.90;;;;;;4996339;28;20045;-73
2024/01/15 09:34:50;;;;;;;5.32;1.63;;;1.90;99.90;;;;;;4992198;28;20045;-74
2024/01/15 09:37:16;;;;;;;3.60;1.20;;;2.00;99.90;;;;;;5024834;28;20064;-74
2024/01/15 09:39:41;;;;;;;6.43;1.50;;;2.10;99.90;;;;;;4990362;28;20137;-74
2024/01/15 09:42:08;;;;;;;6.63;1.40;;;2.10;99.90;;;;;;5009743;28;20424;-74
2024/01/15 09:44:34;;;;;;;12.88;1.88;;;2.30;99.90;;;;;;4983009;28;20353;-73
2024/01/15 09:47:02;;;;;;;9.05;2.22;;;2.20;99.90;;;;;;4995617;28;20061;-74
2024/01/15 09:49:28;;;;;;;6.50;1.90;;;2.20;99.90;;;;;;4998345;28;20413;-74
2024/01/15 09:51:55;;;;;;;8.07;2.10;;;2.10;99.90;;;;;;4982290;28;20042;-73
2024/01/15 09:54:21;;;;;;;12.63;2.22;;;2.00;99.90;;;;;;4996656;28;20397;-74
2024/01/15 09:56:47;;;;;;;9.05;2.00;;;1.90;99.90;;;;;;4998539;28;20054;-74
2024/01/15 09:59:18;;;;;;;7.97;1.65;;;1.90;99.90;;;;;;4998011;28;20308;-73
2024/01/15 10:01:44;;;;;;;3.67;1.73;;;2.00;99.90;;;;;;4982246;28;20049;-73
2024/01/15 10:04:12;;;;;;;6.57;1.58;;;2.10;99.90;;;;;;4991545;28;20042;-74
2024/01/15 10:06:39;;;;;;;10.95;2.55;;;2.00;99.90;;;;;;4978633;28;20443;-74
2024/01/15 10:09:05;;;;;;;6.97;2.20;;;2.00;99.90;;;;;;4991578;28;20036;-74
2024/01/15 10:11:32;;;;;;;10.50;2.00;;;2.00;99.90;;;;;;4998289;28;20489;-74
2024/01/15 10:13:57;;;;;;;7.07;1.88;;;2.00;99.90;;;;;;5030483;28;20049;-74
2024/01/15 10:16:24;;;;;;;7.60;1.80;;;2.10;99.90;;;;;;4992234;28;20413;-74
2024/01/15 10:18:49;;;;;;;7.85;1.80;;;2.20;99.90;;;;;;4984362;28;20076;-73
2024/01/15 10:21:15;;;;;;;8.73;2.58;;;2.20;99.90;;;;;;4981808;28;20058;-74
2024/01/15 10:23:41;;;;;;;12.25;2.15;;;2.40;99.90;;;;;;4982803;28;20053;-74
2024/01/15 10:26:07;;;;;;;9.60;2.03;;;2.40;99.90;;;;;;4993861;28;20432;-74
2024/01/15 10:28:33;;;;;;;6.05;1.95;;;2.30;99.90;;;;;;4981606;28;20411;-74
2024/01/15 10:31:00;;;;;;;7.10;2.10;;;2.40;99.90;;;;;;5002974;28;20552;-74
2024/01/15 10:33:27;;;;;;;11.70;2.25;;;2.40;99.90;;;;;;4993543;28;20116;-73
2024/01/15 10:35:58;;;;;;;11.88;2.35;;;2.40;99.90;;;;;;5010129;28;20049;-74
2024/01/15 10:38:24;;;;;;;9.60;2.13;;;2.50;99.90;;;;;;5000528;28;20120;-74
2024/01/15 10:40:57;;;;;;;11.15;2.35;;;2.50;99.90;;;;;;4981448;28;20509;-74
2024/01/15 10:43:23;;;;;;;13.40;2.30;;;2.70;99.90;;;;;;5011345;28;20038;-74
2024/01/15 10:45:50;;;;;;;5.53;1.88;;;2.80;99.90;;;;;;4980712;28;20046;-74
2024/01/15 10:48:18;;;;;;;6.15;1.52;;;2.90;99.90;;;;;;4986126;28;20484;-74
2024/01/15 10:50:44;;;;;;;11.77;1.40;;;2.90;99.90;;;;;;4997078;28;20125;-74
2024/01/15 10:53:12;;;;;;;5.43;1.67;;;3.20;99.90;;;;;;5001069;28;20358;-74
2024/01/15 10:55:41;;;;;;;6.95;1.50;;;3.40;99.90;;;;;;4982986;28;20041;-74
2024/01/15 10:58:08;;;;;;;13.98;2.08;;;3.10;99.90;;;;;;4982683;28;20093;-74
2024/01/15 11:00:37;;;;;;;6.25;1.58;;;3.10;99.90;;;;;;5010077;28;20038;-74
2024/01/15 11:03:07;;;;;;;6.72;1.75;;;3.10;99.90;;;;;;4977186;28;20456;-74
2024/01/15 11:05:38;;;;;;;4.22;1.30;;;3.00;99.90;;;;;;4996883;28;20049;-74
2024/01/15 11:08:07;;;;;;;7.30;1.33;;;2.90;99.90;;;;;;4997858;28;20623;-74
2024/01/15 11:10:49;;;;;;;4.70;1.40;;;3.00;99.90;;;;;;4998831;28;20109;-74
2024/01/15 11:13:33;;;;;;;4.30;1.10;;;3.00;99.90;;;;;;5017482;28;20041;-74
2024/01/15 11:16:04;;;;;;;3.47;1.10;;;2.80;99.90;;;;;;4995863;28;20064;-74
2024/01/15 11:18:58;;;;;;;5.85;1.30;;;2.70;99.90;;;;;;4997880;28;20034;-74
2024/01/15 11:21:27;;;;;;;2.83;0.70;;;2.60;99.90;;;;;;4995622;28;20053;-74
2024/01/15 11:23:58;;;;;;;2.08;0.60;;;2.20;99.90;;;;;;4997569;28;20628;-74
2024/01/15 11:26:46;;;;;;;4.45;0.90;;;2.00;99.90;;;;;;5001855;28;20163;-74
2024/01/15 11:29:27;;;;;;;1.83;0.47;;;2.00;99.90;;;;;;4983207;28;20132;-74
2024/01/15 11:31:59;;;;;;;2.92;0.50;;;2.00;99.90;;;;;;5025656;28;20543;-74
2024/01/15 11:34:50;;;;;;;4.18;1.02;;;2.10;99.90;;;;;;4994345;28;20038;-74
2024/01/15 11:37:16;;;;;;;3.03;0.70;;;2.10;99.90;;;;;;4978925;28;20050;-74
2024/01/15 11:39:48;;;;;;;5.78;1.17;;;2.20;99.90;;;;;;4994941;28;20053;-74
2024/01/15 11:42:15;;;;;;;6.90;1.10;;;2.10;99.90;;;;;;4998535;28;20425;-74
2024/01/15 11:44:41;;;;;;;6.22;1.00;;;2.10;99.90;;;;;;4987145;28;20030;-74
2024/01/15 11:47:12;;;;;;;4.15;0.70;;;2.10;99.90;;;;;;4995478;28;20045;-74
2024/01/15 11:49:57;;;;;;;5.63;0.77;;;2.20;99.90;;;;;;5007045;28;20173;-74
2024/01/15 11:52:23;;;;;;;2.70;0.73;;;2.20;99.90;;;;;;4995505;28;20044;-74
2024/01/15 11:55:04;;;;;;;4.25;1.13;;;2.20;99.90;;;;;;4996977;28;20413;-74
2024/01/15 11:57:56;;;;;;;3.22;0.90;;;2.30;99.90;;;;;;4982568;28;20511;-74
2024/01/15 12:00:23;;;;;;;3.45;1.15;;;2.30;99.90;;;;;;4993514;28;20046;-74
2024/01/15 12:02:50;;;;;;;6.68;1.20;;;2.20;99.90;;;;;;5000847;28;20080;-74
2024/01/15 12:05:20;;;;;;;4.53;1.27;;;1.90;99.90;;;;;;4985259;28;20029;-74
2024/01/15 12:07:47;;;;;;;4.10;0.80;;;1.70;99.90;;;;;;5001593;28;20049;-74
2024/01/15 12:10:18;;;;;;;4.75;1.08;;;1.60;99.90;;;;;;4982370;28;20057;-74
2024/01/15 12:12:54;;;;;;;2.42;0.50;;;1.60;99.90;;;;;;4984368;28;20049;-73
2024/01/15 12:15:20;;;;;;;3.33;0.70;;;1.60;99.90;;;;;;4990418;28;20045;-73
2024/01/15 12:17:47;;;;;;;2.65;0.60;;;1.70;99.90;;;;;;5013691;28;20117;-74
2024/01/15 12:20:13;;;;;;;2.70;0.77;;;1.70;99.90;;;;;;5016462;28;20049;-73
2024/01/15 12:22:43;;;;;;;1.83;0.70;;;1.80;99.90;;;;;;4981129;28;20493;-74
2024/01/15 12:25:09;;;;;;;3.33;0.80;;;1.90;99.90;;;;;;5007626;28;20508;-73
2024/01/15 12:27:35;;;;;;;4.82;1.00;;;1.80;99.90;;;;;;5027098;28;20424;-73
2024/01/15 12:30:01;;;;;;;3.65;1.00;;;1.90;99.90;;;;;;4980863;28;20225;-74
2024/01/15 12:32:27;;;;;;;5.45;1.45;;;1.90;99.90;;;;;;5025778;28;20125;-74
2024/01/15 12:34:53;;;;;;;3.75;0.98;;;2.00;99.90;;;;;;5015993;28;20054;-74
2024/01/15 12:37:22;;;;;;;2.78;1.10;;;2.10;99.90;;;;;;4990608;28;20053;-74
2024/01/15 12:39:48;;;;;;;6.20;1.27;;;2.10;99.90;;;;;;4983100;28;20072;-74
2024/01/15 12:42:17;;;;;;;4.95;1.38;;;2.20;99.90;;;;;;5000841;28;20042;-74
2024/01/15 12:44:46;;;;;;;6.53;1.35;;;2.30;99.90;;;;;;4997690;28;20041;-73
2024/01/15 12:47:12;;;;;;;6.88;1.48;;;2.30;99.90;;;;;;4995847;28;20041;-74
2024/01/15 12:49:39;;;;;;;12.35;2.00;;;2.60;99.90;;;;;;4994955;28;20519;-74